Jessica S. Settoon — WDD9545 — position and weather

sailwx.info

Track history (hours):
 
Tides and Currents Weather Stations Pressure Air Temp Water Temp Dewpoint Dewpoint Depression Visibility Wind Speed Wind Dir Waves Ship Positions

Jessica S. Settoon

Owner: Settoon Towing LLC, Houma, LA. More information available from US FCC via Universal Licensing System and Coast Guard Vessel Documentation Center.

Last reported at 2016-Jun-30 03:28 UTC. Time now 2016-Jul-01 08:14 UTC.
Position N 29°34' W 090°55'.

Length 17 m; draft 3 m.

Type: Tug. MMSI: 367312940.

Date/timePositionNaut miles runAvg speedWind from/ knotsBaromVisibWave heightAir tempDewpointWater temp
2016-Jun-30 03:28N 29°34' W 090°55'5 5.7
2016-Jun-30 02:33N 29°32' W 090°50'5 4.7
2016-Jun-30 01:33N 29°34' W 090°45'3 2.7
2016-Jun-30 00:33N 29°32' W 090°42'6 5.9
2016-Jun-29 23:33N 29°26' W 090°43'  
2016-Jun-26 23:08N 29°33' W 090°27'4 7.0
2016-Jun-26 22:33N 29°34' W 090°31'6 6.5
2016-Jun-26 21:33N 29°35' W 090°38'4 4.1
2016-Jun-26 20:33N 29°34' W 090°43'6 6.4
2016-Jun-26 19:33N 29°28' W 090°43'8 0.4
2016-Jun-25 20:07N 29°24' W 090°52'3 5.0
2016-Jun-25 19:33N 29°25' W 090°49'5 4.6
2016-Jun-25 18:33N 29°25' W 090°43'7 7.4
2016-Jun-25 17:33N 29°32' W 090°42'3 2.6
2016-Jun-25 16:33N 29°35' W 090°43'1 0.7
2016-Jun-25 15:33N 29°34' W 090°43'6 6.1
2016-Jun-25 14:33N 29°32' W 090°50'  
Track history (hours):
 
Tides and Currents Weather Stations Pressure Air Temp Water Temp Dewpoint Dewpoint Depression Visibility Wind Speed Wind Dir Waves Ship Positions

Jessica S. Settoon

Owner: Settoon Towing LLC, Houma, LA. More information available from US FCC via Universal Licensing System and Coast Guard Vessel Documentation Center.

Last reported at 2016-Jun-30 03:28 UTC. Time now 2016-Jul-01 08:14 UTC.
Position N 29°34' W 090°55'.

Length 17 m; draft 3 m.

Type: Tug. MMSI: 367312940.

Date/timePositionNaut miles runAvg speedWind from/ knotsBaromVisibWave heightAir tempDewpointWater temp
2016-Jun-30 03:28N 29°34' W 090°55'5 5.7
2016-Jun-30 02:33N 29°32' W 090°50'5 4.7
2016-Jun-30 01:33N 29°34' W 090°45'3 2.7
2016-Jun-30 00:33N 29°32' W 090°42'6 5.9
2016-Jun-29 23:33N 29°26' W 090°43'  
2016-Jun-26 23:08N 29°33' W 090°27'4 7.0
2016-Jun-26 22:33N 29°34' W 090°31'6 6.5
2016-Jun-26 21:33N 29°35' W 090°38'4 4.1
2016-Jun-26 20:33N 29°34' W 090°43'6 6.4
2016-Jun-26 19:33N 29°28' W 090°43'8 0.4
2016-Jun-25 20:07N 29°24' W 090°52'3 5.0
2016-Jun-25 19:33N 29°25' W 090°49'5 4.6
2016-Jun-25 18:33N 29°25' W 090°43'7 7.4
2016-Jun-25 17:33N 29°32' W 090°42'3 2.6
2016-Jun-25 16:33N 29°35' W 090°43'1 0.7
2016-Jun-25 15:33N 29°34' W 090°43'6 6.1
2016-Jun-25 14:33N 29°32' W 090°50'  

Dump ship's entire track history